Time;durP1;ratioP1;P1;durP2;ratioP2;P2;SDS_P1;SDS_P2;PMS_P1;PMS_P2;Temp;Humidity;BMP_temperature;BMP_pressure;BME280_temperature;BME280_humidity;BME280_pressure;Samples;Min_cycle;Max_cycle;Signal;HPM_P1;HPM_P2
2022/01/01 00:01:35;;;;;;;45.38;21.27;;;12.50;99.90;;;;;;4996804;28;20059;-86
2022/01/01 00:04:05;;;;;;;43.08;20.95;;;12.40;99.90;;;;;;4960541;28;20568;-90
2022/01/01 00:06:31;;;;;;;41.47;20.33;;;12.40;99.90;;;;;;4994766;28;20507;-88
2022/01/01 00:08:57;;;;;;;43.30;21.08;;;12.30;99.90;;;;;;4981530;28;20044;-88
2022/01/01 00:11:23;;;;;;;36.75;20.63;;;12.30;99.90;;;;;;4995545;28;20044;-89
2022/01/01 00:13:49;;;;;;;46.80;22.63;;;12.30;99.90;;;;;;4970954;28;20771;-87
2022/01/01 00:16:14;;;;;;;41.63;22.00;;;12.20;99.90;;;;;;4992783;28;20073;-88
2022/01/01 00:18:40;;;;;;;42.40;22.48;;;12.20;99.90;;;;;;4979928;28;20502;-90
2022/01/01 00:21:15;;;;;;;45.25;22.40;;;12.20;99.90;;;;;;5008949;28;20050;-90
2022/01/01 00:23:40;;;;;;;43.33;23.08;;;12.20;99.90;;;;;;5016768;28;20079;-88
2022/01/01 00:26:06;;;;;;;43.25;23.00;;;12.20;99.90;;;;;;5010229;28;20039;-87
2022/01/01 00:28:32;;;;;;;41.55;23.38;;;12.20;99.90;;;;;;4990526;28;20050;-89
2022/01/01 00:30:58;;;;;;;46.88;24.42;;;12.20;99.90;;;;;;4990367;28;20229;-91
2022/01/01 00:33:30;;;;;;;45.95;24.25;;;12.20;99.90;;;;;;5012432;28;20108;-90
2022/01/01 00:35:56;;;;;;;48.35;26.70;;;12.20;99.90;;;;;;4983618;28;20047;-90
2022/01/01 00:38:22;;;;;;;48.83;25.77;;;12.20;99.90;;;;;;5001214;28;20031;-90
2022/01/01 00:40:48;;;;;;;47.72;26.15;;;12.20;99.90;;;;;;4966224;28;20035;-89
2022/01/01 00:43:14;;;;;;;48.55;26.70;;;12.20;99.90;;;;;;5031631;28;20054;-89
2022/01/01 00:45:40;;;;;;;52.00;29.75;;;12.20;99.90;;;;;;4989555;28;20039;-90
2022/01/01 00:48:06;;;;;;;54.65;32.10;;;12.20;99.90;;;;;;4990471;28;20158;-90
2022/01/01 00:50:31;;;;;;;50.58;30.98;;;12.30;99.90;;;;;;5011733;28;20047;-91
2022/01/01 00:52:58;;;;;;;53.30;29.95;;;12.30;99.90;;;;;;5011068;28;20051;-89
2022/01/01 00:55:24;;;;;;;47.28;30.17;;;12.30;99.90;;;;;;4995276;28;20528;-88
2022/01/01 00:57:50;;;;;;;56.15;30.08;;;12.30;99.90;;;;;;4987108;28;20153;-89
2022/01/01 01:00:19;;;;;;;50.05;29.08;;;12.30;99.90;;;;;;4984957;28;20047;-88
2022/01/01 01:02:45;;;;;;;50.67;28.42;;;12.30;99.90;;;;;;5018172;28;20039;-89
2022/01/01 01:05:10;;;;;;;49.83;27.98;;;12.30;99.90;;;;;;5001136;28;21963;-89
2022/01/01 01:07:36;;;;;;;47.70;26.25;;;12.30;99.90;;;;;;5019471;28;20079;-90
2022/01/01 01:10:05;;;;;;;47.78;25.48;;;12.30;99.90;;;;;;4993099;28;20070;-90
2022/01/01 01:12:44;;;;;;;45.47;25.73;;;12.20;99.90;;;;;;4991232;28;20453;-89
2022/01/01 01:15:17;;;;;;;49.55;25.92;;;12.20;99.90;;;;;;5001063;28;20051;-89
2022/01/01 01:17:44;;;;;;;45.03;26.15;;;12.20;99.90;;;;;;4996246;28;20040;-89
2022/01/01 01:20:11;;;;;;;48.55;26.45;;;12.20;99.90;;;;;;4985103;28;20773;-89
2022/01/01 01:22:37;;;;;;;44.13;25.40;;;12.20;99.90;;;;;;5017174;28;20044;-89
2022/01/01 01:25:03;;;;;;;51.30;25.67;;;12.20;99.90;;;;;;5004966;28;20074;-90
2022/01/01 01:27:30;;;;;;;46.53;26.50;;;12.20;99.90;;;;;;4994706;28;20341;-90
2022/01/01 01:29:59;;;;;;;50.20;27.17;;;12.20;99.90;;;;;;5007866;28;20047;-88
2022/01/01 01:32:24;;;;;;;52.78;27.88;;;12.20;99.90;;;;;;5001107;28;20074;-90
2022/01/01 01:34:50;;;;;;;52.65;28.05;;;12.20;99.90;;;;;;4991234;28;20052;-89
2022/01/01 01:37:16;;;;;;;57.60;29.17;;;12.20;99.90;;;;;;4977885;28;20044;-89
2022/01/01 01:39:42;;;;;;;58.28;28.45;;;12.20;99.90;;;;;;4999188;28;20457;-89
2022/01/01 01:42:08;;;;;;;53.60;28.48;;;12.20;99.90;;;;;;4996805;28;20132;-90
2022/01/01 01:44:41;;;;;;;54.08;27.58;;;12.20;99.90;;;;;;5009083;28;20124;-89
2022/01/01 01:47:14;;;;;;;54.35;26.73;;;12.20;99.90;;;;;;5013326;28;20051;-90
2022/01/01 01:49:46;;;;;;;47.15;25.35;;;12.20;99.90;;;;;;4992906;28;20052;-88
2022/01/01 01:52:15;;;;;;;52.97;25.88;;;12.20;99.90;;;;;;5004907;28;20825;-89
2022/01/01 01:54:44;;;;;;;50.70;25.38;;;12.20;99.90;;;;;;4998743;28;20058;-91
2022/01/01 01:57:10;;;;;;;47.70;25.90;;;12.20;99.90;;;;;;4985190;28;20035;-89
2022/01/01 01:59:36;;;;;;;49.35;25.42;;;12.20;99.90;;;;;;5002323;28;20593;-89
2022/01/01 02:02:01;;;;;;;52.17;26.38;;;12.20;99.90;;;;;;4997495;28;20039;-87
2022/01/01 02:04:30;;;;;;;50.22;26.85;;;12.20;99.90;;;;;;4998429;28;20075;-88
2022/01/01 02:06:56;;;;;;;54.35;27.90;;;12.20;99.90;;;;;;5000729;28;20098;-88
2022/01/01 02:09:22;;;;;;;55.45;27.85;;;12.10;99.90;;;;;;5030238;28;20536;-92
2022/01/01 02:11:48;;;;;;;54.67;28.50;;;12.10;99.90;;;;;;5023380;28;20051;-89
2022/01/01 02:14:24;;;;;;;58.65;29.13;;;12.00;99.90;;;;;;4984853;28;20450;-88
2022/01/01 02:19:44;;;;;;;;;;;11.90;99.90;;;;;;5022385;28;20056;-88
2022/01/01 02:22:11;;;;;;;57.55;31.58;;;11.90;99.90;;;;;;5019256;28;19924;-88
2022/01/01 02:24:37;;;;;;;59.30;32.03;;;11.90;99.90;;;;;;5038969;28;20909;-89
2022/01/01 02:27:03;;;;;;;64.38;33.35;;;11.90;99.90;;;;;;4967305;28;20106;-89
2022/01/01 02:29:28;;;;;;;64.20;32.20;;;11.90;99.90;;;;;;4988850;28;20223;-90
2022/01/01 02:31:54;;;;;;;58.45;33.28;;;11.80;99.90;;;;;;5007086;28;20182;-89
2022/01/01 02:34:20;;;;;;;59.85;32.33;;;11.80;99.90;;;;;;4970176;28;20864;-88
2022/01/01 02:36:46;;;;;;;55.58;31.98;;;11.80;99.90;;;;;;4992558;28;20367;-89
2022/01/01 02:39:19;;;;;;;58.42;32.95;;;11.80;99.90;;;;;;4994818;28;20105;-89
2022/01/01 02:41:48;;;;;;;63.63;32.95;;;11.70;99.90;;;;;;5022572;28;20070;-89
2022/01/01 02:44:14;;;;;;;64.90;35.40;;;11.70;99.90;;;;;;5018869;28;20043;-90
2022/01/01 02:46:40;;;;;;;67.93;35.80;;;11.70;99.90;;;;;;4987258;28;20992;-87
2022/01/01 02:49:08;;;;;;;67.95;35.60;;;11.70;99.90;;;;;;4995149;28;20082;-90
2022/01/01 02:51:34;;;;;;;69.05;36.20;;;11.80;99.90;;;;;;4989232;28;20048;-89
2022/01/01 02:54:00;;;;;;;69.00;37.03;;;11.80;99.90;;;;;;4996386;28;20425;-89
2022/01/01 02:56:26;;;;;;;69.88;38.42;;;11.90;99.90;;;;;;5022629;28;20131;-89
2022/01/01 02:58:52;;;;;;;70.05;39.95;;;11.90;99.90;;;;;;5001633;28;20446;-88
2022/01/01 03:01:19;;;;;;;70.28;39.45;;;11.90;99.90;;;;;;4995497;28;20917;-88
2022/01/01 03:03:46;;;;;;;69.03;40.25;;;12.00;99.90;;;;;;5037317;28;20054;-90
2022/01/01 03:06:20;;;;;;;74.20;42.08;;;12.00;99.90;;;;;;5017305;28;20184;-87
2022/01/01 03:08:51;;;;;;;71.93;42.92;;;12.00;99.90;;;;;;5030472;28;20577;-88
2022/01/01 03:11:17;;;;;;;74.75;43.55;;;12.00;99.90;;;;;;5012010;28;21040;-89
2022/01/01 03:13:44;;;;;;;81.00;45.63;;;12.00;99.90;;;;;;5004119;28;20040;-88
2022/01/01 03:16:10;;;;;;;75.18;44.30;;;12.00;99.90;;;;;;5021476;28;20219;-89
2022/01/01 03:18:36;;;;;;;78.70;45.85;;;12.00;99.90;;;;;;5017524;28;20057;-88
2022/01/01 03:21:02;;;;;;;75.38;45.83;;;12.00;99.90;;;;;;5004365;28;20043;-89
2022/01/01 03:23:28;;;;;;;80.38;45.95;;;12.00;99.90;;;;;;4982450;28;20813;-90
2022/01/01 03:25:54;;;;;;;80.53;47.75;;;12.00;99.90;;;;;;4985116;28;20043;-90
2022/01/01 03:28:20;;;;;;;77.95;45.92;;;12.00;99.90;;;;;;5002277;28;20477;-89
2022/01/01 03:30:46;;;;;;;83.65;46.30;;;12.00;99.90;;;;;;5019743;28;20218;-89
2022/01/01 03:33:11;;;;;;;77.25;46.40;;;12.00;99.90;;;;;;5003991;28;20068;-87
2022/01/01 03:35:40;;;;;;;79.28;45.42;;;12.00;99.90;;;;;;5008783;28;20050;-88
2022/01/01 03:38:09;;;;;;;78.88;45.90;;;12.00;99.90;;;;;;5018864;28;20108;-89
2022/01/01 03:40:34;;;;;;;70.15;44.58;;;12.00;99.90;;;;;;4983180;28;20044;-88
2022/01/01 03:43:04;;;;;;;77.30;45.67;;;12.00;99.90;;;;;;4991870;28;20137;-87
2022/01/01 03:45:30;;;;;;;78.90;46.42;;;12.00;99.90;;;;;;4990623;28;20071;-89
2022/01/01 03:47:55;;;;;;;83.05;45.45;;;12.00;99.90;;;;;;4991257;28;20375;-89
2022/01/01 03:50:21;;;;;;;78.80;46.35;;;12.00;99.90;;;;;;4993062;28;20047;-88
2022/01/01 03:52:47;;;;;;;75.57;46.90;;;11.90;99.90;;;;;;4986143;28;20043;-89
2022/01/01 03:55:14;;;;;;;77.53;47.42;;;11.90;99.90;;;;;;4997802;28;20089;-89
2022/01/01 03:57:40;;;;;;;77.47;47.80;;;12.00;99.90;;;;;;5022621;28;20415;-89
2022/01/01 04:00:11;;;;;;;83.03;49.75;;;12.00;99.90;;;;;;5005210;28;20059;-89
2022/01/01 04:02:38;;;;;;;79.85;48.47;;;11.90;99.90;;;;;;5020522;28;20464;-88
2022/01/01 04:05:04;;;;;;;83.65;49.70;;;11.90;99.90;;;;;;4998255;28;20043;-89
2022/01/01 04:07:33;;;;;;;81.28;50.28;;;12.00;99.90;;;;;;4991485;28;20044;-88
2022/01/01 04:09:59;;;;;;;83.40;51.50;;;11.90;99.90;;;;;;5024929;28;20760;-89
2022/01/01 04:12:26;;;;;;;81.53;52.58;;;11.90;99.90;;;;;;4972551;28;20043;-89
2022/01/01 04:14:53;;;;;;;81.05;50.90;;;12.00;99.90;;;;;;5002288;28;20771;-90
2022/01/01 04:17:18;;;;;;;83.05;50.72;;;12.00;99.90;;;;;;5005978;28;20089;-89
2022/01/01 04:19:44;;;;;;;84.22;51.53;;;11.90;99.90;;;;;;5025217;28;20048;-88
2022/01/01 04:22:12;;;;;;;76.80;50.33;;;11.90;99.90;;;;;;4996217;28;20536;-89
2022/01/01 04:24:39;;;;;;;80.55;50.05;;;12.00;99.90;;;;;;5021414;28;20112;-89
2022/01/01 04:27:06;;;;;;;80.47;50.25;;;11.90;99.90;;;;;;4995700;28;20512;-88
2022/01/01 04:29:33;;;;;;;84.10;50.58;;;11.90;99.90;;;;;;5005346;28;20531;-89
2022/01/01 04:32:00;;;;;;;80.95;49.92;;;12.00;99.90;;;;;;5006277;28;20056;-89
2022/01/01 04:34:27;;;;;;;80.45;49.10;;;12.00;99.90;;;;;;4995360;28;20113;-89
2022/01/01 04:37:02;;;;;;;78.32;50.47;;;12.00;99.90;;;;;;5019371;28;20147;-89
2022/01/01 04:39:28;;;;;;;81.15;49.42;;;12.00;99.90;;;;;;5005441;28;20057;-90
2022/01/01 04:41:54;;;;;;;79.60;49.45;;;12.00;99.90;;;;;;4998628;28;20063;-90
2022/01/01 04:44:20;;;;;;;76.25;49.03;;;12.00;99.90;;;;;;5005316;28;20048;-90
2022/01/01 04:46:46;;;;;;;76.47;49.60;;;12.00;99.90;;;;;;5019085;28;20054;-89
2022/01/01 04:49:12;;;;;;;82.03;50.95;;;12.00;99.90;;;;;;4989967;28;20047;-88
2022/01/01 04:51:38;;;;;;;78.05;50.70;;;12.00;99.90;;;;;;4991530;28;20055;-90
2022/01/01 04:54:08;;;;;;;83.88;51.85;;;12.00;99.90;;;;;;4991037;28;20130;-89
2022/01/01 04:56:36;;;;;;;85.03;51.78;;;12.00;99.90;;;;;;5020071;28;20180;-90
2022/01/01 04:59:04;;;;;;;83.68;53.80;;;12.00;99.90;;;;;;4989747;28;20187;-89
2022/01/01 05:01:30;;;;;;;82.10;52.03;;;11.90;99.90;;;;;;5022760;28;20054;-89
2022/01/01 05:03:57;;;;;;;87.15;52.35;;;11.90;99.90;;;;;;5018894;28;20047;-88
2022/01/01 05:06:22;;;;;;;81.60;52.28;;;11.90;99.90;;;;;;4970006;28;20036;-89
2022/01/01 05:08:48;;;;;;;79.00;50.55;;;11.90;99.90;;;;;;4973815;28;20100;-90
2022/01/01 05:11:14;;;;;;;88.70;51.58;;;11.90;99.90;;;;;;4981686;28;20050;-88
2022/01/01 05:13:40;;;;;;;80.45;47.03;;;11.90;99.90;;;;;;4969998;28;20043;-90
2022/01/01 05:16:05;;;;;;;77.95;48.05;;;11.90;99.90;;;;;;4978706;28;20039;-89
2022/01/01 05:18:36;;;;;;;79.65;46.28;;;11.90;99.90;;;;;;5007293;28;20693;-88
2022/01/01 05:21:01;;;;;;;80.13;46.47;;;11.90;99.90;;;;;;4999601;28;20055;-89
2022/01/01 05:23:27;;;;;;;77.80;45.25;;;11.90;99.90;;;;;;5019616;28;20036;-89
2022/01/01 05:25:53;;;;;;;75.22;44.10;;;11.90;99.90;;;;;;4984075;28;20134;-88
2022/01/01 05:28:21;;;;;;;73.60;44.28;;;11.90;99.90;;;;;;4985925;28;20146;-87
2022/01/01 05:30:46;;;;;;;70.45;42.75;;;11.90;99.90;;;;;;5011725;28;20039;-87
2022/01/01 05:33:12;;;;;;;78.10;43.15;;;11.90;99.90;;;;;;5019920;28;20532;-88
2022/01/01 05:35:38;;;;;;;72.18;43.38;;;11.90;99.90;;;;;;4985989;28;20054;-89
2022/01/01 05:38:04;;;;;;;74.05;42.92;;;12.00;99.90;;;;;;4994964;28;20097;-89
2022/01/01 05:40:30;;;;;;;69.07;40.83;;;12.00;99.90;;;;;;5021400;28;20052;-88
2022/01/01 05:42:58;;;;;;;69.60;40.33;;;12.00;99.90;;;;;;4994129;28;20292;-88
2022/01/01 05:45:24;;;;;;;64.72;38.50;;;12.00;99.90;;;;;;5001016;28;20043;-89
2022/01/01 05:47:50;;;;;;;58.80;36.17;;;12.00;99.90;;;;;;5016443;28;20136;-89
2022/01/01 05:50:17;;;;;;;56.97;36.15;;;12.00;99.90;;;;;;5008014;28;20043;-90
2022/01/01 05:52:43;;;;;;;58.85;34.85;;;12.00;99.90;;;;;;5037741;28;20048;-90
2022/01/01 05:55:09;;;;;;;52.40;31.15;;;12.00;99.90;;;;;;4992593;28;20101;-89
2022/01/01 05:57:35;;;;;;;55.42;31.38;;;12.00;99.90;;;;;;5010472;28;20580;-88
2022/01/01 06:00:01;;;;;;;55.78;30.90;;;12.10;99.90;;;;;;5010746;28;20054;-89
2022/01/01 06:02:27;;;;;;;53.72;28.15;;;12.00;99.90;;;;;;4988802;28;20854;-88
2022/01/01 06:04:53;;;;;;;52.08;29.85;;;12.00;99.90;;;;;;4970647;28;20126;-89
2022/01/01 06:07:19;;;;;;;50.13;26.52;;;12.00;99.90;;;;;;4991431;28;20039;-91
2022/01/01 06:09:45;;;;;;;51.00;27.73;;;12.10;99.90;;;;;;4965158;28;20040;-89
2022/01/01 06:12:11;;;;;;;52.70;27.15;;;12.10;99.90;;;;;;4977725;28;20388;-88
2022/01/01 06:14:37;;;;;;;46.97;26.17;;;12.10;99.90;;;;;;4990185;28;20075;-89
2022/01/01 06:17:03;;;;;;;48.47;27.73;;;12.10;99.90;;;;;;4997243;28;20130;-89
2022/01/01 06:19:29;;;;;;;51.75;28.48;;;12.10;99.90;;;;;;5010596;28;20692;-89
2022/01/01 06:21:55;;;;;;;49.55;27.20;;;12.10;99.90;;;;;;4996367;28;20688;-89
2022/01/01 06:24:20;;;;;;;52.75;27.73;;;12.10;99.90;;;;;;4994794;28;20598;-87
2022/01/01 06:26:46;;;;;;;51.10;27.15;;;12.10;99.90;;;;;;4989732;28;20568;-88
2022/01/01 06:29:12;;;;;;;52.17;27.33;;;12.10;99.90;;;;;;5040046;28;20047;-88
2022/01/01 06:31:38;;;;;;;50.35;26.75;;;12.10;99.90;;;;;;4968335;28;20047;-87
2022/01/01 06:34:03;;;;;;;46.50;27.30;;;12.10;99.90;;;;;;5014786;28;20039;-88
2022/01/01 06:36:29;;;;;;;50.38;26.17;;;12.10;99.90;;;;;;4979197;28;20036;-89
2022/01/01 06:38:55;;;;;;;50.38;27.17;;;12.10;99.90;;;;;;4986066;28;20044;-89
2022/01/01 06:41:24;;;;;;;49.30;27.10;;;12.10;99.90;;;;;;5001313;28;20055;-89
2022/01/01 06:43:51;;;;;;;51.10;25.92;;;12.10;99.90;;;;;;4999808;28;20076;-89
2022/01/01 06:46:16;;;;;;;50.80;27.10;;;12.10;99.90;;;;;;5018107;28;20078;-88
2022/01/01 06:48:42;;;;;;;47.38;25.80;;;12.10;99.90;;;;;;4992382;28;20043;-89
2022/01/01 06:51:08;;;;;;;47.65;25.05;;;12.10;99.90;;;;;;5013764;28;20090;-88
2022/01/01 06:53:34;;;;;;;50.05;25.58;;;12.10;99.90;;;;;;4999350;28;20163;-89
2022/01/01 06:56:05;;;;;;;46.42;24.30;;;12.00;99.90;;;;;;4994713;28;20943;-89
2022/01/01 06:58:34;;;;;;;50.45;25.88;;;12.00;99.90;;;;;;5010793;28;20473;-88
2022/01/01 07:01:00;;;;;;;52.50;25.08;;;12.00;99.90;;;;;;4996304;28;20763;-89
2022/01/01 07:03:26;;;;;;;48.33;24.63;;;12.00;99.90;;;;;;4997291;28;20039;-91
2022/01/01 07:05:52;;;;;;;48.00;24.30;;;12.00;99.90;;;;;;4995382;28;20086;-89
2022/01/01 07:08:18;;;;;;;48.13;25.33;;;11.90;99.90;;;;;;5010575;28;20075;-89
2022/01/01 07:10:45;;;;;;;48.17;25.52;;;11.90;99.90;;;;;;5006789;28;20039;-90
2022/01/01 07:13:15;;;;;;;53.28;25.63;;;11.90;99.90;;;;;;4996809;28;20035;-89
2022/01/01 07:15:42;;;;;;;50.42;25.60;;;11.90;99.90;;;;;;5010277;28;20043;-88
2022/01/01 07:18:08;;;;;;;49.15;26.48;;;11.90;99.90;;;;;;4990764;28;20402;-90
2022/01/01 07:20:34;;;;;;;52.30;26.05;;;11.90;99.90;;;;;;5009446;28;20523;-89
2022/01/01 07:22:59;;;;;;;47.55;26.00;;;11.90;99.90;;;;;;4990861;28;20040;-89
2022/01/01 07:25:25;;;;;;;50.72;27.42;;;11.90;99.90;;;;;;5009688;28;20838;-89
2022/01/01 07:27:51;;;;;;;54.08;26.27;;;11.90;99.90;;;;;;5009763;28;20283;-89
2022/01/01 07:30:19;;;;;;;49.72;26.70;;;11.90;99.90;;;;;;4982581;28;20061;-89
2022/01/01 07:32:46;;;;;;;54.72;26.85;;;11.90;99.90;;;;;;5013441;28;20035;-89
2022/01/01 07:35:14;;;;;;;52.50;27.88;;;11.90;99.90;;;;;;4988717;28;20052;-89
2022/01/01 07:37:40;;;;;;;54.95;27.70;;;11.90;99.90;;;;;;4989757;28;20116;-88
2022/01/01 07:40:09;;;;;;;55.20;27.85;;;11.90;99.90;;;;;;5013734;28;20505;-91
2022/01/01 07:42:35;;;;;;;51.10;28.38;;;11.90;99.90;;;;;;4992229;28;20138;-91
2022/01/01 07:45:01;;;;;;;54.20;28.63;;;11.90;99.90;;;;;;4995943;28;20113;-88
2022/01/01 07:47:27;;;;;;;54.67;28.33;;;11.90;99.90;;;;;;5013510;28;20047;-89
2022/01/01 07:49:53;;;;;;;54.38;28.55;;;11.90;99.90;;;;;;5013903;28;20419;-90
2022/01/01 07:52:22;;;;;;;53.55;30.02;;;12.00;99.90;;;;;;5004862;28;20039;-88
2022/01/01 07:54:47;;;;;;;56.83;30.42;;;12.00;99.90;;;;;;5016118;28;20445;-87
2022/01/01 07:57:13;;;;;;;55.65;31.75;;;12.00;99.90;;;;;;4989681;28;20061;-87
2022/01/01 07:59:39;;;;;;;60.88;30.90;;;12.00;99.90;;;;;;5012604;28;20409;-91
2022/01/01 08:02:05;;;;;;;62.90;32.70;;;12.10;99.90;;;;;;4973896;28;20039;-89
2022/01/01 08:04:30;;;;;;;62.72;32.40;;;12.10;99.90;;;;;;4979489;28;20243;-89
2022/01/01 08:06:56;;;;;;;66.38;31.90;;;12.10;99.90;;;;;;5012738;28;20886;-90
2022/01/01 08:09:22;;;;;;;57.70;31.45;;;12.10;99.90;;;;;;4986118;28;20856;-89
2022/01/01 08:11:49;;;;;;;58.65;31.20;;;12.10;99.90;;;;;;5012194;28;20048;-90
2022/01/01 08:14:16;;;;;;;62.63;33.08;;;12.10;99.90;;;;;;4992566;28;20039;-90
2022/01/01 08:16:55;;;;;;;59.42;31.70;;;12.10;99.90;;;;;;4980907;28;20051;-89
2022/01/01 08:19:21;;;;;;;58.13;31.92;;;12.10;99.90;;;;;;4984673;28;20075;-88
2022/01/01 08:21:50;;;;;;;63.05;33.08;;;12.20;99.90;;;;;;4975775;28;20098;-90
2022/01/01 08:24:18;;;;;;;64.18;33.13;;;12.20;99.90;;;;;;4991529;28;20043;-90
2022/01/01 08:26:44;;;;;;;59.15;32.33;;;12.10;99.90;;;;;;4975105;28;20058;-91
2022/01/01 08:29:10;;;;;;;56.63;33.38;;;12.20;99.90;;;;;;4991729;28;20434;-92
2022/01/01 08:31:36;;;;;;;61.25;34.00;;;12.20;99.90;;;;;;5019152;28;20138;-93
2022/01/01 08:34:02;;;;;;;60.15;34.20;;;12.20;99.90;;;;;;4986116;28;20473;-91
2022/01/01 08:36:28;;;;;;;61.92;34.22;;;12.20;99.90;;;;;;4966733;28;20542;-91
2022/01/01 08:38:56;;;;;;;62.35;34.03;;;12.30;99.90;;;;;;4995618;28;20055;-88
2022/01/01 08:41:22;;;;;;;56.70;34.33;;;12.30;99.90;;;;;;5016137;28;20401;-89
2022/01/01 08:43:47;;;;;;;58.55;33.60;;;12.40;99.90;;;;;;5019895;28;20416;-89
2022/01/01 08:46:14;;;;;;;59.53;33.95;;;12.40;99.90;;;;;;5014072;28;20147;-93
2022/01/01 08:48:41;;;;;;;55.88;32.58;;;12.50;99.90;;;;;;5008399;28;20055;-91
2022/01/01 08:51:20;;;;;;;58.92;31.80;;;12.50;99.90;;;;;;4997804;28;20117;-89
2022/01/01 08:53:47;;;;;;;52.83;31.20;;;12.50;99.90;;;;;;5002130;28;20047;-91
2022/01/01 08:56:14;;;;;;;53.47;29.95;;;12.50;99.90;;;;;;5008528;28;21067;-88
2022/01/01 08:58:40;;;;;;;54.92;29.33;;;12.50;99.90;;;;;;5012916;28;20040;-90
2022/01/01 09:01:06;;;;;;;51.78;28.27;;;12.60;99.90;;;;;;4991009;28;20810;-90
2022/01/01 09:03:34;;;;;;;44.78;26.65;;;12.60;99.90;;;;;;4993424;28;20423;-88
2022/01/01 09:06:01;;;;;;;45.78;26.88;;;12.60;99.90;;;;;;5013911;28;20048;-88
2022/01/01 09:08:28;;;;;;;40.85;25.52;;;12.70;99.90;;;;;;5013917;28;20051;-90
2022/01/01 09:10:54;;;;;;;45.55;25.20;;;12.70;99.90;;;;;;4998242;28;20931;-93
2022/01/01 09:13:20;;;;;;;40.08;24.45;;;12.70;99.90;;;;;;4994816;28;20036;-91
2022/01/01 09:15:54;;;;;;;39.65;23.33;;;12.80;99.90;;;;;;4973548;28;20043;-91
2022/01/01 09:18:20;;;;;;;40.55;22.52;;;12.80;99.90;;;;;;5002539;28;20101;-91
2022/01/01 09:20:49;;;;;;;35.55;20.92;;;12.80;99.90;;;;;;5016855;28;20035;-92
2022/01/01 09:23:34;;;;;;;38.28;21.20;;;12.80;99.90;;;;;;4968169;28;20518;-90
2022/01/01 09:26:01;;;;;;;37.83;22.00;;;12.80;99.90;;;;;;5006027;28;20452;-90
2022/01/01 09:28:31;;;;;;;34.00;21.40;;;12.90;99.90;;;;;;4990767;28;20410;-90
2022/01/01 09:30:58;;;;;;;39.05;20.38;;;12.90;99.90;;;;;;5008033;28;20039;-87
2022/01/01 09:33:29;;;;;;;34.17;19.48;;;13.00;99.90;;;;;;5009131;28;20473;-88
2022/01/01 09:36:00;;;;;;;35.95;19.15;;;13.10;99.90;;;;;;4991516;28;20508;-89
2022/01/01 09:38:27;;;;;;;32.90;19.00;;;13.00;99.90;;;;;;4993120;28;20040;-92
2022/01/01 09:40:54;;;;;;;29.80;17.55;;;13.10;99.90;;;;;;4998842;28;20151;-88
2022/01/01 09:43:22;;;;;;;31.48;17.83;;;13.10;99.90;;;;;;5015820;28;20051;-89
2022/01/01 09:45:52;;;;;;;30.75;17.63;;;13.20;99.90;;;;;;4994872;28;20060;-90
2022/01/01 09:48:20;;;;;;;30.77;16.70;;;13.20;99.90;;;;;;5000321;28;20047;-90
2022/01/01 09:50:56;;;;;;;25.98;15.65;;;13.20;99.90;;;;;;4989519;28;20043;-88
2022/01/01 09:53:26;;;;;;;26.27;15.30;;;13.20;99.90;;;;;;5011513;28;20396;-95
2022/01/01 09:55:54;;;;;;;23.90;13.63;;;13.30;99.90;;;;;;4998695;28;20047;-90
2022/01/01 09:58:29;;;;;;;28.00;14.15;;;13.30;99.90;;;;;;4989381;28;20040;-91
2022/01/01 10:00:55;;;;;;;27.85;14.52;;;13.40;99.90;;;;;;4989705;28;20067;-87
2022/01/01 10:03:37;;;;;;;23.38;13.18;;;13.50;99.90;;;;;;4991946;28;20111;-91
2022/01/01 10:06:16;;;;;;;23.20;12.38;;;13.50;99.90;;;;;;4997541;28;20086;-89
2022/01/01 10:08:47;;;;;;;25.73;13.13;;;13.70;99.90;;;;;;5010187;28;20044;-91
2022/01/01 10:11:17;;;;;;;20.77;10.65;;;13.70;99.90;;;;;;5012575;28;20227;-90
2022/01/01 10:13:47;;;;;;;20.92;10.98;;;13.60;99.90;;;;;;5004214;28;20079;-94
2022/01/01 10:16:19;;;;;;;21.53;10.70;;;13.60;99.90;;;;;;4999866;28;20833;-92
2022/01/01 10:18:53;;;;;;;22.70;10.73;;;13.60;99.90;;;;;;4996338;28;20909;-89
2022/01/01 10:21:26;;;;;;;21.70;10.75;;;13.60;99.90;;;;;;5011379;28;20090;-88
2022/01/01 10:23:59;;;;;;;19.55;9.77;;;13.60;99.90;;;;;;4995338;28;20404;-89
2022/01/01 10:29:18;;;;;;;21.15;9.88;;;13.50;99.90;;;;;;4996537;28;20071;-87
2022/01/01 10:31:58;;;;;;;21.50;9.80;;;13.50;99.90;;;;;;5017895;28;20043;-90
2022/01/01 10:34:35;;;;;;;20.35;9.15;;;13.50;99.90;;;;;;5011611;28;20624;-89
2022/01/01 10:37:05;;;;;;;21.95;9.63;;;13.50;99.90;;;;;;4989990;28;20062;-89
2022/01/01 10:39:32;;;;;;;22.30;8.98;;;13.40;99.90;;;;;;5010403;28;20598;-89
2022/01/01 10:42:01;;;;;;;18.48;8.73;;;13.40;99.90;;;;;;4997681;28;20114;-88
2022/01/01 10:44:38;;;;;;;16.33;8.32;;;13.40;99.90;;;;;;5004518;28;20047;-89
2022/01/01 10:47:21;;;;;;;22.10;8.68;;;13.40;99.90;;;;;;5005655;28;20520;-90
2022/01/01 10:52:24;;;;;;;17.08;7.90;;;13.40;99.90;;;;;;5013111;28;20321;-90
2022/01/01 10:54:51;;;;;;;17.25;8.50;;;13.30;99.90;;;;;;5003717;28;20043;-86
2022/01/01 10:57:29;;;;;;;15.82;7.95;;;13.30;99.90;;;;;;5005521;28;20051;-90
2022/01/01 11:00:15;;;;;;;16.88;8.35;;;13.30;99.90;;;;;;5009260;28;20055;-90
2022/01/01 11:02:49;;;;;;;17.00;7.95;;;13.30;99.90;;;;;;5013362;28;20466;-90
2022/01/01 11:05:16;;;;;;;18.98;8.27;;;13.30;99.90;;;;;;5014296;28;20977;-87
2022/01/01 11:07:59;;;;;;;17.50;7.85;;;13.30;99.90;;;;;;5016783;28;20051;-90
2022/01/01 11:10:26;;;;;;;16.17;7.93;;;13.30;99.90;;;;;;4987697;28;20083;-87
2022/01/01 11:12:53;;;;;;;15.65;7.95;;;13.30;99.90;;;;;;5013347;28;20408;-88
2022/01/01 11:15:20;;;;;;;18.88;8.20;;;13.30;99.90;;;;;;5001103;28;20370;-88
2022/01/01 11:17:48;;;;;;;17.20;7.97;;;13.30;99.90;;;;;;4979878;28;20043;-89
2022/01/01 11:20:15;;;;;;;19.10;8.38;;;13.30;99.90;;;;;;5004735;28;20048;-87
2022/01/01 11:22:42;;;;;;;17.88;8.27;;;13.30;99.90;;;;;;4987712;28;20478;-87
2022/01/01 11:25:09;;;;;;;16.02;7.78;;;13.30;99.90;;;;;;4986304;28;20043;-89
2022/01/01 11:27:36;;;;;;;17.73;7.82;;;13.30;99.90;;;;;;4986019;28;20051;-88
2022/01/01 11:30:05;;;;;;;15.93;7.70;;;13.30;99.90;;;;;;5005558;28;20309;-89
2022/01/01 11:32:37;;;;;;;18.30;8.45;;;13.30;99.90;;;;;;5004807;28;20580;-89
2022/01/01 11:35:19;;;;;;;15.00;8.05;;;13.20;99.90;;;;;;4981502;28;20154;-88
2022/01/01 11:37:55;;;;;;;15.13;8.15;;;13.20;99.90;;;;;;4982281;28;20142;-89
2022/01/01 11:40:21;;;;;;;17.50;8.07;;;13.20;99.90;;;;;;5010715;28;20162;-87
2022/01/01 11:42:48;;;;;;;17.27;8.93;;;13.20;99.90;;;;;;4960575;28;20386;-89
2022/01/01 11:45:41;;;;;;;15.70;8.57;;;13.30;99.90;;;;;;4987697;28;20044;-87
2022/01/01 11:48:29;;;;;;;17.98;8.60;;;13.30;99.90;;;;;;4986209;28;20044;-88
2022/01/01 11:50:56;;;;;;;18.48;8.63;;;13.30;99.90;;;;;;4993035;28;20097;-89
2022/01/01 11:53:32;;;;;;;19.98;8.85;;;13.30;99.90;;;;;;4989962;28;20048;-88
2022/01/01 11:56:12;;;;;;;16.30;8.27;;;13.30;99.90;;;;;;4966674;28;20044;-88
2022/01/01 11:58:49;;;;;;;17.33;8.13;;;13.40;99.90;;;;;;4969376;28;20053;-89
2022/01/01 12:01:19;;;;;;;16.95;8.45;;;13.40;99.90;;;;;;4986410;28;20052;-87
2022/01/01 12:03:52;;;;;;;16.52;7.95;;;13.30;99.90;;;;;;4979311;28;20043;-86
2022/01/01 12:06:20;;;;;;;17.15;7.57;;;13.30;99.90;;;;;;4969207;28;21068;-87
2022/01/01 12:08:48;;;;;;;16.38;7.72;;;13.40;99.90;;;;;;4981000;28;20059;-87
2022/01/01 12:11:31;;;;;;;18.23;8.00;;;13.40;99.90;;;;;;4972666;28;20476;-86
2022/01/01 12:13:59;;;;;;;18.52;8.40;;;13.40;99.90;;;;;;4987295;28;20746;-87
2022/01/01 12:16:26;;;;;;;17.98;7.88;;;13.40;99.90;;;;;;4984951;28;20052;-88
2022/01/01 12:19:06;;;;;;;15.52;7.95;;;13.40;99.90;;;;;;4988138;28;20557;-89
2022/01/01 12:21:39;;;;;;;16.50;7.32;;;13.50;99.90;;;;;;4990972;28;20055;-88
2022/01/01 12:24:09;;;;;;;16.92;7.90;;;13.50;99.90;;;;;;4974356;28;20250;-88
2022/01/01 12:26:35;;;;;;;13.60;7.35;;;13.60;99.90;;;;;;4958242;28;20124;-89
2022/01/01 12:29:07;;;;;;;14.95;7.78;;;13.50;99.90;;;;;;4991892;28;20846;-87
2022/01/01 12:31:33;;;;;;;13.90;7.32;;;13.50;99.90;;;;;;4988458;28;20456;-89
2022/01/01 12:34:09;;;;;;;18.20;7.80;;;13.50;99.90;;;;;;4995411;28;20044;-91
2022/01/01 12:36:35;;;;;;;13.32;7.18;;;13.50;99.90;;;;;;4975384;28;20063;-87
2022/01/01 12:39:05;;;;;;;16.08;8.00;;;13.40;99.90;;;;;;4969467;28;20500;-89
2022/01/01 12:41:52;;;;;;;15.10;7.50;;;13.40;99.90;;;;;;4979094;28;20470;-89